Time,TemperatureF,DewpointF,PressureIn,WindDirection,WindDirectionDegrees,WindSpeedMPH,WindSpeedGustMPH,Humidity,HourlyPrecipIn,Conditions,Clouds,dailyrainin,SolarRadiationWatts/m^2,SoftwareType,DateUTC
2013-01-10 00:32:00,36.0,35.0,-100.00,South,186,24.0,34.0,97,0.00,,,0.00,1.000000,,2013-01-10 08:32:00,
2013-01-10 00:42:00,36.0,35.0,-100.00,South,186,24.0,34.0,97,0.00,,,0.00,1.000000,,2013-01-10 08:42:00,
2013-01-10 00:52:00,36.0,35.0,-100.00,South,186,24.0,34.0,97,0.00,,,0.00,1.000000,,2013-01-10 08:52:00,
2013-01-10 01:32:00,36.0,35.0,-100.00,South,190,25.0,34.0,98,0.00,,,0.00,1.000000,,2013-01-10 09:32:00,
2013-01-10 01:42:00,36.0,35.0,-100.00,South,190,25.0,34.0,98,0.00,,,0.00,1.000000,,2013-01-10 09:42:00,
2013-01-10 01:52:00,36.0,35.0,-100.00,South,190,25.0,34.0,98,0.00,,,0.00,1.000000,,2013-01-10 09:52:00,
2013-01-10 02:22:00,36.0,35.0,-100.00,SSW,193,22.0,37.0,98,0.00,,,0.00,1.000000,,2013-01-10 10:22:00,
2013-01-10 02:32:00,36.0,35.0,-100.00,SSW,193,22.0,37.0,98,0.00,,,0.00,1.000000,,2013-01-10 10:32:00,
2013-01-10 02:42:00,36.0,35.0,-100.00,SSW,193,22.0,37.0,98,0.00,,,0.00,1.000000,,2013-01-10 10:42:00,
2013-01-10 02:52:00,36.0,35.0,-100.00,SSW,193,22.0,37.0,98,0.00,,,0.00,1.000000,,2013-01-10 10:52:00,
2013-01-10 03:22:00,35.0,34.0,-100.00,SSW,204,17.0,38.0,98,0.00,,,0.00,1.000000,,2013-01-10 11:22:00,
2013-01-10 03:32:00,35.0,34.0,-100.00,SSW,204,17.0,38.0,98,0.00,,,0.00,1.000000,,2013-01-10 11:32:00,
2013-01-10 03:42:00,35.0,34.0,-100.00,SSW,204,17.0,38.0,98,0.00,,,0.00,1.000000,,2013-01-10 11:42:00,
2013-01-10 03:52:00,35.0,34.0,-100.00,SSW,204,17.0,38.0,98,0.00,,,0.00,1.000000,,2013-01-10 11:52:00,
2013-01-10 06:22:00,28.0,28.0,-100.00,NW,306,5.0,10.0,98,-99.99,,,0.00,1.000000,,2013-01-10 14:22:00,
2013-01-10 06:32:00,28.0,28.0,-100.00,NW,306,5.0,10.0,98,-99.99,,,0.00,1.000000,,2013-01-10 14:32:00,
2013-01-10 06:43:00,28.0,28.0,-100.00,NW,306,5.0,10.0,98,-99.99,,,0.00,1.000000,,2013-01-10 14:43:00,
2013-01-10 06:52:00,28.0,28.0,-100.00,NW,306,5.0,10.0,98,-99.99,,,0.00,1.000000,,2013-01-10 14:52:00,
2013-01-10 07:22:00,27.0,27.0,-100.00,NNW,345,10.0,16.0,98,0.00,,,0.00,1.000000,,2013-01-10 15:22:00,
2013-01-10 07:32:00,27.0,27.0,-100.00,NNW,345,10.0,16.0,98,0.00,,,0.00,1.000000,,2013-01-10 15:32:00,
2013-01-10 07:43:00,27.0,27.0,-100.00,NNW,345,10.0,16.0,98,0.00,,,0.00,1.000000,,2013-01-10 15:43:00,
2013-01-10 07:52:00,27.0,27.0,-100.00,NNW,345,10.0,16.0,98,0.00,,,0.00,1.000000,,2013-01-10 15:52:00,
2013-01-10 08:33:00,27.0,24.0,-100.00,NNW,345,10.0,17.0,89,0.00,,,0.00,34.000000,,2013-01-10 16:33:00,
2013-01-10 08:42:00,27.0,24.0,-100.00,NNW,345,10.0,17.0,89,0.00,,,0.00,34.000000,,2013-01-10 16:42:00,
2013-01-10 08:52:00,27.0,24.0,-100.00,NNW,345,10.0,17.0,89,0.00,,,0.00,34.000000,,2013-01-10 16:52:00,
2013-01-10 09:33:00,26.0,22.0,-100.00,North,8,7.0,21.0,84,0.00,,,0.00,82.000000,,2013-01-10 17:33:00,
2013-01-10 09:42:00,26.0,22.0,-100.00,North,8,7.0,21.0,84,0.00,,,0.00,82.000000,,2013-01-10 17:42:00,
2013-01-10 09:53:00,26.0,22.0,-100.00,North,8,7.0,21.0,84,0.00,,,0.00,82.000000,,2013-01-10 17:53:00,
2013-01-10 10:23:00,28.0,21.0,-100.00,NNW,348,9.0,18.0,75,0.00,,,0.00,336.000000,,2013-01-10 18:23:00,
2013-01-10 10:33:00,28.0,21.0,-100.00,NNW,348,9.0,18.0,75,0.00,,,0.00,336.000000,,2013-01-10 18:33:00,
2013-01-10 10:43:00,28.0,21.0,-100.00,NNW,348,9.0,18.0,75,0.00,,,0.00,336.000000,,2013-01-10 18:43:00,
2013-01-10 10:52:00,28.0,21.0,-100.00,NNW,348,9.0,18.0,75,0.00,,,0.00,336.000000,,2013-01-10 18:52:00,
2013-01-10 11:23:00,31.0,23.0,-100.00,North,7,7.0,18.0,71,0.00,,,0.00,697.000000,,2013-01-10 19:23:00,
2013-01-10 11:32:00,31.0,23.0,-100.00,North,7,7.0,18.0,71,0.00,,,0.00,697.000000,,2013-01-10 19:32:00,
2013-01-10 11:43:00,31.0,23.0,-100.00,North,7,7.0,18.0,71,0.00,,,0.00,697.000000,,2013-01-10 19:43:00,
2013-01-10 11:52:00,31.0,23.0,-100.00,North,7,7.0,18.0,71,0.00,,,0.00,697.000000,,2013-01-10 19:52:00,
2013-01-10 12:23:00,32.0,22.0,-100.00,NNW,335,5.0,15.0,65,0.00,,,0.00,763.000000,,2013-01-10 20:23:00,
2013-01-10 12:32:00,32.0,22.0,-100.00,NNW,335,5.0,15.0,65,0.00,,,0.00,763.000000,,2013-01-10 20:32:00,
2013-01-10 12:42:00,32.0,22.0,-100.00,NNW,335,5.0,15.0,65,0.00,,,0.00,763.000000,,2013-01-10 20:42:00,
2013-01-10 12:53:00,32.0,22.0,-100.00,NNW,335,5.0,15.0,65,0.00,,,0.00,763.000000,,2013-01-10 20:53:00,
2013-01-10 13:23:00,31.0,20.0,-100.00,NW,320,7.0,16.0,63,0.00,,,0.00,642.000000,,2013-01-10 21:23:00,
2013-01-10 13:33:00,31.0,20.0,-100.00,NW,320,7.0,16.0,63,0.00,,,0.00,642.000000,,2013-01-10 21:33:00,
2013-01-10 13:42:00,31.0,20.0,-100.00,NW,320,7.0,16.0,63,0.00,,,0.00,642.000000,,2013-01-10 21:42:00,
2013-01-10 13:52:00,31.0,20.0,-100.00,NW,320,7.0,16.0,63,0.00,,,0.00,642.000000,,2013-01-10 21:52:00,
2013-01-10 14:24:00,33.0,23.0,-100.00,West,272,4.0,17.0,67,0.00,,,0.00,438.000000,,2013-01-10 22:24:00,
2013-01-10 14:32:00,33.0,23.0,-100.00,West,272,4.0,17.0,67,0.00,,,0.00,438.000000,,2013-01-10 22:32:00,
2013-01-10 14:43:00,33.0,23.0,-100.00,West,272,4.0,17.0,67,0.00,,,0.00,438.000000,,2013-01-10 22:43:00,
2013-01-10 15:22:00,31.0,23.0,-100.00,NW,325,4.0,17.0,73,0.00,,,0.00,446.000000,,2013-01-10 23:22:00,
2013-01-10 15:32:00,31.0,23.0,-100.00,NW,325,4.0,17.0,73,0.00,,,0.00,446.000000,,2013-01-10 23:32:00,
2013-01-10 15:42:00,31.0,23.0,-100.00,NW,325,4.0,17.0,73,0.00,,,0.00,446.000000,,2013-01-10 23:42:00,
2013-01-10 15:52:00,31.0,23.0,-100.00,NW,325,4.0,17.0,73,0.00,,,0.00,446.000000,,2013-01-10 23:52:00,
2013-01-10 16:23:00,29.0,21.0,-100.00,NNE,20,5.0,17.0,71,0.00,,,0.00,295.000000,,2013-01-11 00:23:00,
2013-01-10 16:33:00,29.0,21.0,-100.00,NNE,20,5.0,17.0,71,0.00,,,0.00,295.000000,,2013-01-11 00:33:00,
2013-01-10 16:42:00,29.0,21.0,-100.00,NNE,20,5.0,17.0,71,0.00,,,0.00,295.000000,,2013-01-11 00:42:00,
2013-01-10 16:52:00,29.0,21.0,-100.00,NNE,20,5.0,17.0,71,0.00,,,0.00,295.000000,,2013-01-11 00:52:00,
2013-01-10 17:22:00,26.0,19.0,-100.00,NNE,33,4.0,12.0,73,0.00,,,0.00,116.000000,,2013-01-11 01:22:00,
2013-01-10 17:33:00,26.0,19.0,-100.00,NNE,33,4.0,12.0,73,0.00,,,0.00,116.000000,,2013-01-11 01:33:00,
2013-01-10 17:42:00,26.0,19.0,-100.00,NNE,33,4.0,12.0,73,0.00,,,0.00,116.000000,,2013-01-11 01:42:00,
2013-01-10 17:52:00,26.0,19.0,-100.00,NNE,33,4.0,12.0,73,0.00,,,0.00,116.000000,,2013-01-11 01:52:00,
2013-01-10 18:23:00,25.0,22.0,-100.00,NNE,21,4.0,12.0,87,0.00,,,0.00,2.000000,,2013-01-11 02:23:00,
2013-01-10 18:33:00,25.0,22.0,-100.00,NNE,21,4.0,12.0,87,0.00,,,0.00,2.000000,,2013-01-11 02:33:00,
2013-01-10 18:43:00,25.0,22.0,-100.00,NNE,21,4.0,12.0,87,0.00,,,0.00,2.000000,,2013-01-11 02:43:00,
2013-01-10 18:53:00,25.0,22.0,-100.00,NNE,21,4.0,12.0,87,0.00,,,0.00,2.000000,,2013-01-11 02:53:00,
2013-01-10 19:22:00,24.0,21.0,-100.00,NNE,26,5.0,14.0,88,0.00,,,-99.99,1.000000,,2013-01-11 03:22:00,
2013-01-10 19:33:00,24.0,21.0,-100.00,NNE,26,5.0,14.0,88,0.00,,,-99.99,1.000000,,2013-01-11 03:33:00,
2013-01-10 19:42:00,24.0,21.0,-100.00,NNE,26,5.0,14.0,88,0.00,,,-99.99,1.000000,,2013-01-11 03:42:00,
2013-01-10 19:52:00,24.0,21.0,-100.00,NNE,26,5.0,14.0,88,0.00,,,-99.99,1.000000,,2013-01-11 03:52:00,
2013-01-10 20:33:00,24.0,22.0,-100.00,NNW,346,6.0,12.0,93,0.00,,,0.00,1.000000,,2013-01-11 04:33:00,
2013-01-10 20:42:00,24.0,22.0,-100.00,NNW,346,6.0,12.0,93,0.00,,,0.00,1.000000,,2013-01-11 04:42:00,
2013-01-10 20:52:00,24.0,22.0,-100.00,NNW,346,6.0,12.0,93,0.00,,,0.00,1.000000,,2013-01-11 04:52:00,
2013-01-10 21:33:00,24.0,21.0,-100.00,NNE,32,5.0,16.0,89,0.00,,,0.00,1.000000,,2013-01-11 05:33:00,
2013-01-10 21:42:00,24.0,21.0,-100.00,NNE,32,5.0,16.0,89,0.00,,,0.00,1.000000,,2013-01-11 05:42:00,
2013-01-10 21:52:00,24.0,21.0,-100.00,NNE,32,5.0,16.0,89,0.00,,,0.00,1.000000,,2013-01-11 05:52:00,
2013-01-10 22:32:00,24.0,22.0,-100.00,North,3,6.0,15.0,91,0.00,,,0.00,1.000000,,2013-01-11 06:32:00,
2013-01-10 22:42:00,24.0,22.0,-100.00,North,3,6.0,15.0,91,0.00,,,0.00,1.000000,,2013-01-11 06:42:00,
2013-01-10 22:52:00,24.0,22.0,-100.00,North,3,6.0,15.0,91,0.00,,,0.00,1.000000,,2013-01-11 06:52:00,
2013-01-10 23:22:00,24.0,19.0,-100.00,NNE,19,7.0,17.0,80,0.00,,,0.00,1.000000,,2013-01-11 07:22:00,
2013-01-10 23:32:00,24.0,19.0,-100.00,NNE,19,7.0,17.0,80,0.00,,,0.00,1.000000,,2013-01-11 07:32:00,
2013-01-10 23:42:00,24.0,19.0,-100.00,NNE,19,7.0,17.0,80,0.00,,,0.00,1.000000,,2013-01-11 07:42:00,
2013-01-10 23:52:00,24.0,19.0,-100.00,NNE,19,7.0,17.0,80,0.00,,,0.00,1.000000,,2013-01-11 07:52:00,